Blandford, Massachusetts
Current Conditions -  °F | °C
As of 5:53 PM on Thursday 18 Dec 2014 (Local Time) from KBAF Reporting Station
Overcast Overcast  
Wind Chill: 28°   Ceiling: 3000
Heat Index: 37°   Visibility: 10mi
Dew Point: 25°   Wind: 15mph
Humidity: 62%   Direction: 290°WNW
Pressure: 29.89"   Gusts: NA
Location:  42.18°N, 72.93°W
Report Text: KBAF 182253Z 29013KT 10SM BKN030 OVC060 03/M04 A2989 RMK AO2 SLP127 T00281039
Loading
Personal Weather Stations






























Interactive Weather Map New forecast layout! Learn more

10-Day Weather Forecast

Advertisements
Track Severe Weather on mobile